Time;durP1;ratioP1;P1;durP2;ratioP2;P2;SDS_P1;SDS_P2;PMS_P1;PMS_P2;Temp;Humidity;BMP_temperature;BMP_pressure;BME280_temperature;BME280_humidity;BME280_pressure;Samples;Min_cycle;Max_cycle;Signal;HPM_P1;HPM_P2
2021/08/31 00:01:19;;;;;;;7.03;5.30;;;;;;;13.98;63.05;101272.66;5064177;28;20036;-65
2021/08/31 00:03:45;;;;;;;8.35;5.07;;;;;;;13.95;63.27;101272.69;5064555;28;20025;-65
2021/08/31 00:06:10;;;;;;;7.82;4.68;;;;;;;13.98;63.25;101269.16;5064168;28;20055;-65
2021/08/31 00:08:36;;;;;;;12.43;4.63;;;;;;;14.00;63.23;101270.03;5062769;28;20071;-65
2021/08/31 00:11:01;;;;;;;9.15;4.50;;;;;;;14.02;63.18;101281.34;5063811;28;20056;-67
2021/08/31 00:13:27;;;;;;;8.82;4.47;;;;;;;14.04;63.10;101276.94;5064032;28;20021;-65
2021/08/31 00:15:52;;;;;;;9.32;5.00;;;;;;;14.08;63.33;101283.88;5063948;28;20021;-63
2021/08/31 00:18:17;;;;;;;10.10;5.40;;;;;;;14.10;63.18;101279.53;5063773;28;20582;-65
2021/08/31 00:20:43;;;;;;;8.93;4.82;;;;;;;14.10;63.13;101284.75;5063884;28;20025;-64
2021/08/31 00:23:09;;;;;;;9.13;4.70;;;;;;;14.08;63.22;101283.00;5064081;28;20029;-64
2021/08/31 00:25:34;;;;;;;9.10;5.43;;;;;;;14.05;63.27;101278.69;5062285;28;20021;-64
2021/08/31 00:27:59;;;;;;;7.10;4.18;;;;;;;14.00;63.08;101275.25;5063718;28;20106;-64
2021/08/31 00:30:24;;;;;;;8.27;4.68;;;;;;;13.99;63.30;101274.38;5063592;28;20036;-63
2021/08/31 00:32:50;;;;;;;9.20;4.43;;;;;;;13.96;63.14;101284.00;5063739;28;20024;-64
2021/08/31 00:35:15;;;;;;;13.68;5.93;;;;;;;13.90;63.41;101278.84;5063831;28;20021;-64
2021/08/31 00:37:41;;;;;;;9.38;5.22;;;;;;;13.86;63.32;101278.84;5063484;28;20017;-65
2021/08/31 00:40:07;;;;;;;9.27;5.03;;;;;;;13.79;63.56;101281.50;5063822;28;20021;-64
2021/08/31 00:42:32;;;;;;;11.27;4.95;;;;;;;13.74;63.64;101282.41;5063827;28;20032;-64
2021/08/31 00:44:57;;;;;;;8.77;4.97;;;;;;;13.75;63.66;101285.91;5062289;28;20078;-64
2021/08/31 00:47:23;;;;;;;8.10;4.47;;;;;;;13.73;63.79;101279.81;5063444;28;20484;-64
2021/08/31 00:49:49;;;;;;;7.53;4.68;;;;;;;13.71;63.93;101285.06;5063283;28;20056;-64
2021/08/31 00:52:14;;;;;;;11.10;5.70;;;;;;;13.67;63.96;101280.75;5063332;28;20436;-64
2021/08/31 00:54:40;;;;;;;7.30;4.93;;;;;;;13.62;64.13;101290.34;5063580;28;20093;-64
2021/08/31 00:57:05;;;;;;;9.60;4.88;;;;;;;13.55;64.27;101289.50;5063117;28;20016;-64
2021/08/31 00:59:32;;;;;;;8.52;5.22;;;;;;;13.46;64.60;101295.63;5062855;28;20021;-64
2021/08/31 01:01:58;;;;;;;12.02;5.32;;;;;;;13.37;64.85;101296.53;5063141;28;20046;-65
2021/08/31 01:04:25;;;;;;;11.35;6.25;;;;;;;13.30;64.91;101300.06;5061935;28;20111;-64
2021/08/31 01:06:52;;;;;;;7.65;5.57;;;;;;;13.21;65.26;101295.75;5063260;28;20054;-63
2021/08/31 01:09:21;;;;;;;10.23;5.95;;;;;;;13.07;65.22;101281.91;5063161;28;20025;-65
2021/08/31 01:11:48;;;;;;;10.98;5.65;;;;;;;13.10;65.51;101308.00;5063005;28;20053;-65
2021/08/31 01:14:15;;;;;;;14.93;5.90;;;;;;;12.98;65.79;101295.88;5063105;28;20559;-66
2021/08/31 01:16:40;;;;;;;11.65;5.72;;;;;;;12.92;66.08;101299.38;5061896;28;20029;-65
2021/08/31 01:19:06;;;;;;;12.70;6.03;;;;;;;12.86;66.14;101288.97;5062994;28;20017;-64
2021/08/31 01:21:37;;;;;;;10.00;5.80;;;;;;;12.83;66.18;101297.66;5063356;28;20032;-67
2021/08/31 01:24:03;;;;;;;9.38;5.72;;;;;;;12.77;66.33;101293.34;5063721;28;20484;-66
2021/08/31 01:26:30;;;;;;;10.82;5.90;;;;;;;12.72;66.61;101297.69;5063590;28;20276;-66
2021/08/31 01:28:56;;;;;;;12.32;6.20;;;;;;;12.65;66.75;101293.38;5062988;28;20116;-64
2021/08/31 01:31:22;;;;;;;10.13;5.93;;;;;;;12.66;66.79;101297.72;5062795;28;20051;-65
2021/08/31 01:33:47;;;;;;;9.40;5.53;;;;;;;12.60;67.14;101298.59;5062756;28;20021;-64
2021/08/31 01:36:24;;;;;;;10.50;5.97;;;;;;;12.58;67.10;101297.75;5062782;28;20029;-64
2021/08/31 01:38:52;;;;;;;8.10;4.97;;;;;;;12.58;67.48;101305.56;5061479;28;20108;-64
2021/08/31 01:41:18;;;;;;;8.70;5.78;;;;;;;12.57;67.60;101300.34;5062741;28;20025;-65
2021/08/31 01:43:44;;;;;;;9.40;5.38;;;;;;;12.55;67.65;101295.16;5061443;28;20027;-64
2021/08/31 01:46:10;;;;;;;9.10;5.78;;;;;;;12.56;67.69;101290.78;5062855;28;20128;-65
2021/08/31 01:48:35;;;;;;;10.88;6.05;;;;;;;12.55;67.58;101295.16;5062596;28;20473;-65
2021/08/31 01:51:01;;;;;;;9.25;5.70;;;;;;;12.54;67.67;101287.34;5062915;28;20465;-64
2021/08/31 01:53:26;;;;;;;8.52;5.32;;;;;;;12.55;67.62;101296.88;5062544;28;20025;-65
2021/08/31 01:55:52;;;;;;;9.77;6.13;;;;;;;12.53;67.74;101302.09;5062554;28;20028;-65
2021/08/31 01:58:17;;;;;;;8.80;5.60;;;;;;;12.49;67.96;101302.97;5062702;28;20025;-65
2021/08/31 02:00:42;;;;;;;12.43;6.32;;;;;;;12.49;68.27;101311.63;5062719;28;20063;-66
2021/08/31 02:03:08;;;;;;;14.18;6.35;;;;;;;12.46;68.50;101301.22;5062630;28;20091;-66
2021/08/31 02:05:33;;;;;;;10.57;5.72;;;;;;;12.36;68.59;101294.31;5062728;28;20032;-65
2021/08/31 02:07:59;;;;;;;12.10;6.50;;;;;;;12.31;68.42;101302.13;5062692;28;20029;-66
2021/08/31 02:10:25;;;;;;;12.50;6.55;;;;;;;12.24;68.66;101292.56;5063297;28;20112;-65
2021/08/31 02:12:50;;;;;;;11.90;6.25;;;;;;;12.21;69.02;101297.78;5066381;28;20041;-66
2021/08/31 02:15:15;;;;;;;11.85;6.20;;;;;;;12.20;69.29;101303.88;5065013;28;20025;-65
2021/08/31 02:17:41;;;;;;;8.10;4.82;;;;;;;12.19;69.52;101304.75;5066417;28;20036;-65
2021/08/31 02:20:08;;;;;;;9.63;6.07;;;;;;;12.21;69.63;101303.00;5066334;28;20025;-65
2021/08/31 02:22:33;;;;;;;9.15;5.82;;;;;;;12.19;69.64;101308.19;5066125;28;20032;-65
2021/08/31 02:24:58;;;;;;;11.35;5.93;;;;;;;12.19;69.57;101295.19;5066245;28;20048;-65
2021/08/31 02:27:24;;;;;;;9.50;5.53;;;;;;;12.15;69.55;101298.66;5066341;28;20024;-65
2021/08/31 02:29:49;;;;;;;9.63;5.43;;;;;;;12.13;69.55;101303.00;5065978;28;20024;-66
2021/08/31 02:32:15;;;;;;;10.80;5.97;;;;;;;12.12;69.72;101302.13;5066294;28;20028;-65
2021/08/31 02:34:40;;;;;;;8.10;5.50;;;;;;;12.10;69.90;101295.19;5064988;28;20025;-66
2021/08/31 02:37:06;;;;;;;12.00;6.30;;;;;;;12.10;70.07;101303.00;5066004;28;20064;-66
2021/08/31 02:39:31;;;;;;;10.88;5.70;;;;;;;12.09;70.21;101304.72;5065650;28;20025;-65
2021/08/31 02:41:57;;;;;;;9.32;5.22;;;;;;;12.11;70.03;101302.13;5066034;28;20024;-65
2021/08/31 02:44:22;;;;;;;8.40;5.70;;;;;;;12.14;70.00;101299.56;5064573;28;20477;-66
2021/08/31 02:46:47;;;;;;;9.57;5.10;;;;;;;12.17;69.99;101303.88;5065751;28;20021;-65
2021/08/31 02:49:13;;;;;;;8.35;5.18;;;;;;;12.18;69.83;101300.41;5065444;28;20108;-66
2021/08/31 02:51:38;;;;;;;10.45;6.03;;;;;;;12.17;69.82;101303.88;5064451;28;20017;-65
2021/08/31 02:56:50;;;;;;;8.82;5.32;;;;;;;12.22;69.72;101303.00;5583217;23;20064;-66
2021/08/31 02:59:15;;;;;;;11.73;5.97;;;;;;;12.25;69.84;101307.34;4980242;28;20026;-68
2021/08/31 03:04:25;;;;;;;7.45;5.25;;;;;;;12.24;69.65;101301.25;5025802;28;20060;-68
2021/08/31 03:06:51;;;;;;;8.98;5.53;;;;;;;12.25;69.73;101296.94;5025908;28;20030;-68
2021/08/31 03:09:16;;;;;;;10.65;6.28;;;;;;;12.26;69.88;101296.06;5025618;28;20030;-67
2021/08/31 03:11:42;;;;;;;9.68;5.60;;;;;;;12.33;69.84;101307.34;5025685;28;20113;-68
2021/08/31 03:14:07;;;;;;;8.77;5.60;;;;;;;12.36;69.79;101300.38;5025774;28;20021;-67
2021/08/31 03:16:33;;;;;;;9.25;5.20;;;;;;;12.38;69.91;101296.03;5024088;28;20034;-68
2021/08/31 03:18:58;;;;;;;9.98;5.80;;;;;;;12.41;69.92;101296.91;5025665;28;20029;-67
2021/08/31 03:21:23;;;;;;;9.27;5.93;;;;;;;12.46;69.96;101284.75;5025350;28;20052;-68
2021/08/31 03:23:49;;;;;;;9.70;5.43;;;;;;;12.50;69.93;101292.56;5025459;28;20018;-68
2021/08/31 03:26:14;;;;;;;8.48;5.25;;;;;;;12.55;70.01;101289.94;5025356;28;20239;-67
2021/08/31 03:28:39;;;;;;;9.68;5.90;;;;;;;12.58;69.76;101295.13;5025505;28;20057;-68
2021/08/31 03:31:05;;;;;;;9.75;5.47;;;;;;;12.61;69.83;101289.03;5025341;28;20018;-67
2021/08/31 03:33:30;;;;;;;9.02;5.40;;;;;;;12.63;69.92;101292.50;5025334;28;20117;-69
2021/08/31 03:35:56;;;;;;;8.82;5.20;;;;;;;12.66;70.04;101292.50;5025107;28;20022;-68
2021/08/31 03:38:21;;;;;;;8.35;5.18;;;;;;;12.69;69.81;101289.00;5025205;28;20085;-68
2021/08/31 03:40:46;;;;;;;10.77;5.43;;;;;;;12.71;69.91;101292.50;5024925;28;20022;-67
2021/08/31 03:43:12;;;;;;;9.75;5.70;;;;;;;12.73;69.95;101298.56;5025101;28;20466;-67
2021/08/31 03:45:37;;;;;;;11.75;5.43;;;;;;;12.73;69.90;101285.53;5024984;28;20025;-69
2021/08/31 03:48:03;;;;;;;7.80;5.05;;;;;;;12.77;69.97;101288.13;5023544;28;20029;-69
2021/08/31 03:50:28;;;;;;;6.70;4.75;;;;;;;12.81;70.10;101286.34;5024870;28;20022;-67
2021/08/31 03:52:54;;;;;;;11.48;5.80;;;;;;;12.84;69.76;101288.09;5025042;28;20022;-69
2021/08/31 03:55:19;;;;;;;7.55;4.93;;;;;;;12.84;69.88;101283.75;5023310;28;20053;-69
2021/08/31 03:57:45;;;;;;;10.27;5.53;;;;;;;12.81;69.84;101281.16;5024358;28;20092;-69
2021/08/31 04:00:11;;;;;;;9.80;6.15;;;;;;;12.84;69.93;101286.34;5023144;28;20509;-69
2021/08/31 04:02:37;;;;;;;8.93;5.28;;;;;;;12.87;69.86;101291.59;5024311;28;20022;-67
2021/08/31 04:05:03;;;;;;;13.02;5.43;;;;;;;12.87;69.97;101286.38;5024694;28;20456;-67
2021/08/31 04:07:29;;;;;;;10.07;5.65;;;;;;;12.91;69.73;101292.41;5023361;28;20018;-68
2021/08/31 04:09:55;;;;;;;12.13;5.90;;;;;;;12.93;69.69;101289.81;5024563;28;20037;-67
2021/08/31 04:12:21;;;;;;;11.38;6.00;;;;;;;12.93;69.70;101298.50;5024410;28;20080;-68
2021/08/31 04:14:46;;;;;;;10.35;6.43;;;;;;;12.95;69.84;101288.06;5024536;28;20029;-69
2021/08/31 04:17:12;;;;;;;9.82;6.25;;;;;;;13.00;69.65;101294.13;5024344;28;20037;-69
2021/08/31 04:19:38;;;;;;;13.02;6.28;;;;;;;13.05;69.64;101299.31;5024462;28;20022;-68
2021/08/31 04:22:04;;;;;;;12.05;5.93;;;;;;;13.09;69.68;101303.63;5024421;28;20259;-67
2021/08/31 04:24:29;;;;;;;10.63;6.30;;;;;;;13.20;69.63;101303.56;5023043;28;20048;-66
2021/08/31 04:26:54;;;;;;;11.50;5.80;;;;;;;13.34;69.65;101301.78;5024102;28;20595;-67
2021/08/31 04:29:20;;;;;;;11.15;6.32;;;;;;;13.56;69.42;101308.66;5024244;28;20045;-68
2021/08/31 04:31:45;;;;;;;9.30;5.50;;;;;;;13.78;69.47;101300.66;5024267;28;20037;-66
2021/08/31 04:34:10;;;;;;;12.40;6.38;;;;;;;14.05;68.94;101307.41;5023690;28;20438;-66
2021/08/31 04:36:36;;;;;;;8.32;5.45;;;;;;;14.31;68.58;101302.84;5022881;28;20022;-67
2021/08/31 04:39:01;;;;;;;10.63;6.28;;;;;;;14.58;68.23;101298.22;5023950;28;20748;-67
2021/08/31 04:41:26;;;;;;;9.57;5.65;;;;;;;14.86;67.76;101300.53;5023768;28;20477;-68
2021/08/31 04:43:52;;;;;;;9.43;5.78;;;;;;;15.16;67.00;101301.00;5024245;28;20529;-67
2021/08/31 04:46:17;;;;;;;9.15;5.63;;;;;;;15.47;66.22;101295.38;5022882;28;20028;-68
2021/08/31 04:48:42;;;;;;;12.10;5.18;;;;;;;15.78;65.58;101291.44;5024069;28;20441;-68
2021/08/31 04:51:08;;;;;;;8.30;5.28;;;;;;;15.95;64.76;101274.56;5024279;28;20022;-67
2021/08/31 04:53:33;;;;;;;7.47;4.88;;;;;;;16.33;64.21;101286.16;5024049;28;20037;-68
2021/08/31 04:55:58;;;;;;;9.02;5.22;;;;;;;16.70;63.49;101278.44;5023793;28;20030;-66
2021/08/31 04:58:24;;;;;;;7.65;5.07;;;;;;;17.16;62.41;101276.66;5022499;28;20109;-67
2021/08/31 05:00:49;;;;;;;8.55;5.13;;;;;;;17.61;61.61;101284.38;5023914;28;20025;-67
2021/08/31 05:03:18;;;;;;;6.90;4.75;;;;;;;17.92;59.91;101286.28;5024168;28;20029;-67
2021/08/31 05:05:43;;;;;;;7.90;4.82;;;;;;;18.16;58.91;101284.78;5023949;28;20211;-67
2021/08/31 05:08:09;;;;;;;7.13;4.38;;;;;;;18.43;57.96;101286.72;5023930;28;20028;-67
2021/08/31 05:10:34;;;;;;;7.82;5.40;;;;;;;18.70;57.07;101282.47;5023877;28;20087;-68
2021/08/31 05:13:00;;;;;;;8.13;5.40;;;;;;;19.11;56.00;101285.72;5023825;28;20332;-69
2021/08/31 05:15:25;;;;;;;7.55;4.70;;;;;;;19.57;55.65;101289.53;5023701;28;20306;-68
2021/08/31 05:17:50;;;;;;;8.48;5.03;;;;;;;20.16;54.42;101293.81;5023183;28;20018;-68
2021/08/31 05:20:17;;;;;;;7.88;4.70;;;;;;;20.50;52.52;101289.97;5023532;28;20037;-68
2021/08/31 05:22:42;;;;;;;7.13;4.40;;;;;;;20.85;51.52;101280.78;5023529;28;20453;-68
2021/08/31 05:25:08;;;;;;;8.90;5.35;;;;;;;21.22;50.88;101289.09;5023707;28;20034;-68
2021/08/31 05:27:33;;;;;;;8.80;4.72;;;;;;;21.53;50.07;101294.00;5023616;28;20585;-69
2021/08/31 05:30:02;;;;;;;8.23;4.78;;;;;;;21.79;48.99;101280.66;5023633;28;20030;-69
2021/08/31 05:32:27;;;;;;;6.75;4.32;;;;;;;22.22;48.34;101279.78;5023697;28;20049;-68
2021/08/31 05:34:53;;;;;;;6.80;4.45;;;;;;;22.64;46.96;101277.94;5023723;28;20367;-69
2021/08/31 05:37:18;;;;;;;5.95;4.00;;;;;;;23.02;45.75;101285.03;5022417;28;20049;-68
2021/08/31 05:39:43;;;;;;;6.10;3.85;;;;;;;23.31;44.78;101276.63;5023411;28;20033;-68
2021/08/31 05:42:10;;;;;;;7.30;4.93;;;;;;;23.56;44.06;101278.09;5023502;28;20052;-69
2021/08/31 05:44:37;;;;;;;7.13;5.15;;;;;;;23.59;42.86;101285.91;5023496;28;20469;-68
2021/08/31 05:47:04;;;;;;;8.30;4.72;;;;;;;23.70;42.97;101280.91;5026753;28;20109;-68
2021/08/31 05:49:30;;;;;;;6.45;4.35;;;;;;;24.05;41.95;101280.06;5027467;28;20036;-68
2021/08/31 05:51:56;;;;;;;7.15;4.18;;;;;;;24.23;41.62;101280.91;5027441;28;20049;-69
2021/08/31 05:54:24;;;;;;;8.35;5.22;;;;;;;24.30;40.40;101286.75;5027539;28;20030;-69
2021/08/31 05:56:49;;;;;;;6.95;4.20;;;;;;;24.55;41.07;101287.25;5026775;28;20034;-68
2021/08/31 05:59:15;;;;;;;7.60;4.72;;;;;;;25.04;40.01;101282.84;5027313;28;20029;-68
2021/08/31 06:01:40;;;;;;;10.65;4.70;;;;;;;25.35;38.77;101292.59;5027191;28;20032;-68
2021/08/31 06:04:06;;;;;;;6.82;4.10;;;;;;;25.23;38.49;101296.81;5027018;28;20026;-68
2021/08/31 06:06:32;;;;;;;6.22;4.57;;;;;;;25.25;38.07;101288.75;5027221;28;20013;-68
2021/08/31 06:08:57;;;;;;;5.88;4.15;;;;;;;25.35;38.25;101302.38;5027079;28;20029;-68
2021/08/31 06:11:23;;;;;;;9.48;5.38;;;;;;;25.67;37.59;101294.34;5026995;28;20072;-67
2021/08/31 06:13:48;;;;;;;8.52;5.20;;;;;;;25.79;36.94;101289.25;5027186;28;20469;-68
2021/08/31 06:16:14;;;;;;;8.45;4.68;;;;;;;25.82;36.41;101295.28;5026798;28;20040;-68
2021/08/31 06:18:39;;;;;;;6.75;4.82;;;;;;;25.69;36.25;101292.47;5026654;28;20029;-68
2021/08/31 06:21:05;;;;;;;8.23;4.55;;;;;;;25.69;36.31;101292.47;5026777;28;20026;-68
2021/08/31 06:23:30;;;;;;;7.35;4.68;;;;;;;25.81;36.43;101288.25;5026874;28;20018;-69
2021/08/31 06:25:56;;;;;;;9.15;5.43;;;;;;;25.93;36.19;101288.44;5026619;28;20032;-68
2021/08/31 06:28:21;;;;;;;8.35;5.45;;;;;;;25.81;36.02;101293.56;5026869;28;20018;-68
2021/08/31 06:30:46;;;;;;;6.00;4.03;;;;;;;25.84;35.70;101290.72;5026626;28;20130;-69
2021/08/31 06:33:12;;;;;;;8.27;4.38;;;;;;;25.88;35.76;101293.19;5026908;28;20496;-68
2021/08/31 06:35:37;;;;;;;8.20;4.45;;;;;;;25.90;36.27;101281.50;5026747;28;20322;-68
2021/08/31 06:38:02;;;;;;;6.72;4.75;;;;;;;26.20;35.83;101291.25;5026602;28;20025;-68
2021/08/31 06:40:28;;;;;;;10.55;4.55;;;;;;;26.42;35.36;101286.44;5026696;28;20021;-68
2021/08/31 06:42:53;;;;;;;10.23;4.40;;;;;;;26.82;35.01;101285.75;5026639;28;20112;-68
2021/08/31 06:45:19;;;;;;;7.65;4.65;;;;;;;27.05;34.91;101288.75;5026609;28;20022;-68
2021/08/31 06:47:44;;;;;;;10.98;4.78;;;;;;;27.31;34.21;101283.53;5026289;28;20444;-69
2021/08/31 06:50:15;;;;;;;8.60;4.55;;;;;;;27.58;33.97;101280.84;5026327;28;20113;-68
2021/08/31 06:52:41;;;;;;;9.13;4.37;;;;;;;27.86;33.07;101286.13;5026436;28;20022;-69
2021/08/31 06:55:07;;;;;;;8.13;4.50;;;;;;;27.87;33.02;101287.88;5026251;28;20088;-68
2021/08/31 06:57:33;;;;;;;8.15;4.22;;;;;;;27.85;32.14;101281.78;5025537;28;20042;-69
2021/08/31 06:59:58;;;;;;;9.20;4.53;;;;;;;27.56;32.48;101288.09;5026119;28;20030;-69
2021/08/31 07:02:24;;;;;;;6.90;4.45;;;;;;;27.53;33.14;101290.97;5026337;28;20029;-68
2021/08/31 07:04:49;;;;;;;8.70;4.82;;;;;;;27.76;33.18;101295.75;5026035;28;20044;-68
2021/08/31 07:07:15;;;;;;;8.77;4.78;;;;;;;28.10;32.46;101296.06;5026136;28;20027;-68
2021/08/31 07:09:40;;;;;;;8.55;4.70;;;;;;;28.49;31.25;101293.44;5026038;28;20030;-69
2021/08/31 07:12:06;;;;;;;7.10;4.60;;;;;;;28.79;31.39;101296.66;5025883;28;20397;-69
2021/08/31 07:14:31;;;;;;;6.75;4.50;;;;;;;28.96;31.24;101300.84;5025856;28;20018;-69
2021/08/31 07:16:57;;;;;;;13.13;5.68;;;;;;;29.23;30.88;101304.25;5025771;28;20018;-69
2021/08/31 07:19:22;;;;;;;8.10;3.75;;;;;;;29.49;30.83;101298.78;5025924;28;20040;-68
2021/08/31 07:21:48;;;;;;;6.25;4.15;;;;;;;29.57;30.47;101301.72;5025761;28;20032;-68
2021/08/31 07:24:13;;;;;;;6.53;4.00;;;;;;;29.71;29.77;101306.06;5025831;28;20032;-69
2021/08/31 07:26:38;;;;;;;7.68;4.18;;;;;;;29.51;30.07;101305.72;5025434;28;20346;-68
2021/08/31 07:29:04;;;;;;;8.60;4.47;;;;;;;29.53;30.00;101305.59;5025570;28;20029;-69
2021/08/31 07:31:29;;;;;;;10.23;4.40;;;;;;;29.56;29.13;101316.94;5025526;28;20492;-68
2021/08/31 07:33:54;;;;;;;7.70;4.70;;;;;;;29.36;30.24;101314.91;5025602;28;20045;-68
2021/08/31 07:36:23;;;;;;;7.07;3.80;;;;;;;29.48;30.32;101302.41;5025396;28;20390;-68
2021/08/31 07:38:50;;;;;;;7.45;4.65;;;;;;;29.82;29.42;101307.91;5025323;28;20017;-69
2021/08/31 07:41:15;;;;;;;7.85;4.57;;;;;;;30.10;29.15;101312.97;5025325;28;20025;-67
2021/08/31 07:43:42;;;;;;;8.60;4.68;;;;;;;29.99;28.20;101303.06;5025338;28;20033;-68
2021/08/31 07:46:07;;;;;;;7.32;4.22;;;;;;;29.66;28.23;101301.06;5025377;28;20081;-67
2021/08/31 07:48:32;;;;;;;5.85;4.00;;;;;;;29.42;28.78;101301.06;5025260;28;20018;-68
2021/08/31 07:50:58;;;;;;;5.38;3.72;;;;;;;29.34;28.86;101298.97;5023749;28;20022;-68
2021/08/31 07:53:23;;;;;;;6.53;3.58;;;;;;;29.19;28.84;101303.63;5025130;28;20037;-68
2021/08/31 07:55:49;;;;;;;9.73;4.30;;;;;;;28.97;29.22;101299.88;5025041;28;20028;-68
2021/08/31 07:58:14;;;;;;;6.85;4.38;;;;;;;28.60;29.51;101313.16;5024712;28;20054;-68
2021/08/31 08:00:41;;;;;;;7.40;4.20;;;;;;;28.34;29.46;101316.72;5025216;28;20038;-67
2021/08/31 08:03:06;;;;;;;7.32;4.00;;;;;;;27.81;31.14;101313.13;5025012;28;20030;-67
2021/08/31 08:05:31;;;;;;;8.52;4.57;;;;;;;28.07;30.84;101312.31;5025128;28;20371;-68
2021/08/31 08:07:57;;;;;;;7.15;4.40;;;;;;;28.29;30.10;101308.16;5024426;28;20014;-68
2021/08/31 08:10:22;;;;;;;11.68;4.18;;;;;;;28.43;30.35;101315.22;5023375;28;20032;-68
2021/08/31 08:12:47;;;;;;;6.60;3.65;;;;;;;28.60;29.56;101307.81;5024656;28;20255;-68
2021/08/31 08:15:13;;;;;;;8.15;4.20;;;;;;;28.82;29.46;101308.00;5024946;28;20034;-68
2021/08/31 08:17:39;;;;;;;6.38;3.78;;;;;;;28.99;29.07;101307.78;5024470;28;20025;-68
2021/08/31 08:20:07;;;;;;;11.13;3.88;;;;;;;28.97;29.12;101305.22;5024567;28;20330;-68
2021/08/31 08:22:33;;;;;;;7.35;4.20;;;;;;;28.65;29.09;101309.22;5023213;28;20033;-68
2021/08/31 08:24:58;;;;;;;8.95;4.80;;;;;;;28.39;30.14;101311.91;5024732;28;20030;-68
2021/08/31 08:27:23;;;;;;;9.00;5.43;;;;;;;28.69;30.66;101310.69;5024776;28;20029;-69
2021/08/31 08:29:49;;;;;;;8.35;4.60;;;;;;;29.44;29.56;101310.66;5024717;28;20416;-68
2021/08/31 08:32:14;;;;;;;9.30;4.82;;;;;;;30.07;28.60;101322.06;5024685;28;20021;-69
2021/08/31 08:34:40;;;;;;;11.68;5.18;;;;;;;30.45;27.90;101320.06;5024583;28;20033;-70
2021/08/31 08:37:06;;;;;;;14.05;4.47;;;;;;;30.83;27.17;101303.75;5024615;28;20029;-69
2021/08/31 08:39:33;;;;;;;14.02;5.00;;;;;;;30.50;26.68;101320.56;5024614;28;20034;-68
2021/08/31 08:41:59;;;;;;;7.72;4.53;;;;;;;30.18;27.68;101316.78;5024089;28;20083;-68
2021/08/31 08:44:28;;;;;;;10.27;4.53;;;;;;;30.52;28.00;101315.94;5024264;28;20029;-68
2021/08/31 08:46:54;;;;;;;8.43;4.78;;;;;;;31.13;27.26;101304.91;5024548;28;20349;-69
2021/08/31 08:49:20;;;;;;;8.73;4.10;;;;;;;31.73;26.73;101311.59;5023150;28;20029;-69
2021/08/31 08:51:45;;;;;;;9.73;4.90;;;;;;;32.43;26.18;101307.50;5024002;28;20057;-69
2021/08/31 08:54:11;;;;;;;14.77;4.63;;;;;;;32.82;25.34;101299.59;5022886;28;20470;-69
2021/08/31 08:56:37;;;;;;;10.52;4.55;;;;;;;32.48;24.23;101302.56;5023742;28;20444;-69
2021/08/31 08:59:02;;;;;;;12.48;4.28;;;;;;;31.87;25.13;101302.41;5024336;28;20022;-68
2021/08/31 09:01:43;;;;;;;10.15;4.20;;;;;;;32.07;25.60;101306.06;5023995;28;20032;-68
2021/08/31 09:04:09;;;;;;;8.70;3.53;;;;;;;32.69;25.75;101301.66;5024472;28;20083;-68
2021/08/31 09:06:35;;;;;;;8.60;3.97;;;;;;;33.23;24.24;101299.50;5024204;28;20148;-69
2021/08/31 09:09:03;;;;;;;7.88;3.47;;;;;;;32.96;23.16;101294.78;5023959;28;20030;-68
2021/08/31 09:11:31;;;;;;;7.85;4.47;;;;;;;31.99;24.35;101293.31;5023842;28;20294;-68
2021/08/31 09:14:28;;;;;;;10.00;3.88;;;;;;;31.57;25.84;101287.94;5023902;28;20030;-69
2021/08/31 09:17:02;;;;;;;10.70;4.05;;;;;;;32.09;25.97;101296.06;5023810;28;20208;-68
2021/08/31 09:19:31;;;;;;;9.23;4.40;;;;;;;32.80;25.09;101282.72;5023737;28;20032;-68
2021/08/31 09:22:15;;;;;;;8.32;4.55;;;;;;;33.65;24.28;101286.78;5023761;28;20022;-69
2021/08/31 09:24:54;;;;;;;5.53;3.35;;;;;;;33.81;23.08;101286.16;5023823;28;20058;-69
2021/08/31 09:27:33;;;;;;;5.85;4.15;;;;;;;33.74;22.92;101290.44;5022414;28;20018;-68
2021/08/31 09:30:18;;;;;;;4.88;3.83;;;;;;;33.23;22.91;101283.38;5024007;28;20527;-69
2021/08/31 09:33:07;;;;;;;5.35;4.07;;;;;;;32.58;23.97;101273.91;5023837;28;20429;-68
2021/08/31 09:35:34;;;;;;;4.93;3.75;;;;;;;32.94;24.44;101281.47;5023927;28;20037;-68
2021/08/31 09:38:05;;;;;;;4.35;3.45;;;;;;;33.56;24.12;101277.69;5023380;28;20033;-69
2021/08/31 09:40:31;;;;;;;5.18;3.70;;;;;;;33.98;23.46;101287.25;5023661;28;20026;-68
2021/08/31 09:43:04;;;;;;;7.22;4.05;;;;;;;34.41;23.04;101280.59;5023852;28;20029;-68
2021/08/31 09:45:36;;;;;;;7.72;3.78;;;;;;;34.27;22.27;101282.78;5023828;28;20025;-68
2021/08/31 09:48:04;;;;;;;8.90;3.40;;;;;;;33.82;23.25;101277.09;5023795;28;20049;-68
2021/08/31 09:50:39;;;;;;;6.05;3.85;;;;;;;34.20;23.36;101277.16;5023581;28;20030;-68
2021/08/31 09:53:04;;;;;;;5.63;4.03;;;;;;;34.92;22.78;101277.47;5023570;28;20037;-68
2021/08/31 09:55:29;;;;;;;4.82;3.40;;;;;;;35.38;22.33;101279.25;5023453;28;20038;-69
2021/08/31 09:58:09;;;;;;;6.00;3.38;;;;;;;35.54;21.73;101273.13;5023215;28;20042;-69
2021/08/31 10:00:36;;;;;;;6.18;3.28;;;;;;;36.04;21.24;101263.47;5023581;28;20046;-69
2021/08/31 10:03:02;;;;;;;5.55;4.15;;;;;;;36.27;20.72;101276.47;5023443;28;20064;-69
2021/08/31 10:05:28;;;;;;;4.68;3.28;;;;;;;36.34;21.20;101263.97;5023245;28;20022;-67
2021/08/31 10:07:56;;;;;;;7.70;3.25;;;;;;;36.38;20.49;101269.91;5023441;28;20034;-68
2021/08/31 10:10:22;;;;;;;5.85;3.08;;;;;;;35.85;19.89;101268.13;5023664;28;20152;-68
2021/08/31 10:12:51;;;;;;;9.85;4.13;;;;;;;35.08;21.34;101266.81;5023155;28;20110;-68
2021/08/31 10:15:16;;;;;;;7.60;3.25;;;;;;;34.84;21.66;101252.09;5023359;28;20026;-69
2021/08/31 10:17:45;;;;;;;7.85;3.15;;;;;;;35.04;22.06;101267.28;5023148;28;20033;-68
2021/08/31 10:20:16;;;;;;;5.35;3.97;;;;;;;35.27;21.03;101264.16;5023069;28;20050;-68
2021/08/31 10:22:42;;;;;;;;;;;;;;;34.72;21.91;101262.28;5022255;28;20417;-68
2021/08/31 10:25:09;;;;;;;6.13;3.90;;;;;;;34.85;22.80;101263.75;5022874;28;19964;-69
2021/08/31 10:27:42;;;;;;;6.97;4.28;;;;;;;35.08;23.21;101260.59;5021815;28;20029;-68
2021/08/31 10:30:16;;;;;;;6.55;3.97;;;;;;;35.43;22.96;101255.34;5023327;28;20034;-68
2021/08/31 10:32:43;;;;;;;6.78;4.20;;;;;;;35.63;22.23;101257.81;5025524;28;20030;-68
2021/08/31 10:35:09;;;;;;;6.25;3.97;;;;;;;35.73;22.58;101255.91;5026661;28;20044;-69
2021/08/31 10:37:46;;;;;;;5.53;3.95;;;;;;;35.65;22.56;101255.81;5026556;28;20021;-69
2021/08/31 10:40:31;;;;;;;5.88;3.95;;;;;;;35.59;22.47;101258.13;5026407;28;20056;-69
2021/08/31 10:42:56;;;;;;;5.97;3.60;;;;;;;35.50;22.70;101251.00;5026370;28;20026;-69
2021/08/31 10:45:24;;;;;;;5.28;3.72;;;;;;;35.29;23.07;101252.19;5026548;28;20480;-68
2021/08/31 10:47:51;;;;;;;5.25;3.78;;;;;;;34.57;22.67;101236.81;5026430;28;20109;-68
2021/08/31 10:50:18;;;;;;;5.60;4.13;;;;;;;34.27;23.96;101255.81;5025089;28;20045;-69
2021/08/31 10:52:56;;;;;;;5.28;3.90;;;;;;;34.41;24.30;101259.88;5026375;28;20052;-68
2021/08/31 10:55:24;;;;;;;5.88;3.65;;;;;;;34.33;24.27;101255.22;5026537;28;20041;-68
2021/08/31 10:58:09;;;;;;;7.75;3.97;;;;;;;34.41;24.39;101259.03;5024898;28;20157;-69
2021/08/31 11:00:35;;;;;;;5.18;4.20;;;;;;;34.28;24.17;101254.84;5026399;28;20026;-69
2021/08/31 11:03:01;;;;;;;5.28;3.72;;;;;;;34.28;24.15;101251.28;5026301;28;20036;-68
2021/08/31 11:05:28;;;;;;;9.00;3.88;;;;;;;34.21;24.34;101262.69;5026247;28;20032;-68
2021/08/31 11:08:12;;;;;;;6.75;3.80;;;;;;;34.45;24.58;101255.03;5025885;28;20026;-69
2021/08/31 11:10:43;;;;;;;7.80;4.03;;;;;;;35.00;24.11;101237.09;5025720;28;20026;-68
2021/08/31 11:13:18;;;;;;;5.90;3.75;;;;;;;35.31;23.15;101243.94;5025982;28;20123;-68
2021/08/31 11:15:49;;;;;;;4.47;3.55;;;;;;;35.57;22.86;101243.97;5026078;28;20397;-69
2021/08/31 11:18:16;;;;;;;;;;;;;;;35.39;23.39;101240.44;5026276;28;20037;-68
2021/08/31 11:20:45;;;;;;;5.00;3.63;;;;;;;35.81;22.64;101234.34;5025525;28;20003;-68
2021/08/31 11:23:23;;;;;;;9.65;4.57;;;;;;;36.10;22.64;101235.00;5025542;28;20018;-69
2021/08/31 11:25:58;;;;;;;7.68;3.30;;;;;;;35.67;22.56;101233.06;5025595;28;20025;-69
2021/08/31 11:28:26;;;;;;;6.45;4.43;;;;;;;34.19;23.81;101245.81;5025640;28;20041;-69